createdAt,value
2023-04-08T00:00:51.210Z,20.70
2023-04-08T00:01:51.417Z,20.68
2023-04-08T00:02:51.269Z,20.65
2023-04-08T00:03:51.281Z,20.70
2023-04-08T00:04:51.209Z,20.68
2023-04-08T00:05:51.167Z,20.67
2023-04-08T00:06:51.199Z,20.67
2023-04-08T00:07:51.167Z,20.67
2023-04-08T00:08:51.251Z,20.71
2023-04-08T00:09:51.153Z,20.73
2023-04-08T00:10:51.132Z,20.74
2023-04-08T00:11:51.107Z,20.73
2023-04-08T00:12:51.096Z,20.70
2023-04-08T00:13:51.074Z,20.70
2023-04-08T00:14:51.104Z,20.74
2023-04-08T00:15:51.052Z,20.73
2023-04-08T00:16:51.136Z,20.73
2023-04-08T00:17:51.077Z,20.73
2023-04-08T00:18:51.249Z,20.74
2023-04-08T00:19:51.032Z,20.73
2023-04-08T00:20:51.096Z,20.76
2023-04-08T00:21:51.129Z,20.77
2023-04-08T00:22:51.053Z,20.70
2023-04-08T00:23:51.000Z,20.77
2023-04-08T00:24:51.032Z,20.77
2023-04-08T00:25:50.980Z,20.74
2023-04-08T00:26:51.036Z,20.77
2023-04-08T00:27:50.980Z,20.73
2023-04-08T00:28:51.321Z,20.70
2023-04-08T00:29:50.956Z,20.70
2023-04-08T00:30:50.950Z,20.79
2023-04-08T00:31:50.933Z,20.77
2023-04-08T00:32:50.976Z,20.79
2023-04-08T00:33:50.913Z,20.78
2023-04-08T00:34:50.906Z,20.82
2023-04-08T00:35:50.956Z,20.75
2023-04-08T00:36:50.891Z,20.76
2023-04-08T00:37:50.885Z,20.83
2023-04-08T00:38:51.034Z,20.73
2023-04-08T00:39:50.830Z,20.70
2023-04-08T00:40:50.825Z,20.74
2023-04-08T00:41:50.911Z,20.77
2023-04-08T00:42:50.785Z,20.83
2023-04-08T00:43:50.790Z,20.79
2023-04-08T00:44:50.841Z,20.85
2023-04-08T00:45:50.797Z,20.83
2023-04-08T00:46:50.773Z,20.80
2023-04-08T00:47:50.786Z,20.85
2023-04-08T00:48:50.865Z,20.88
2023-04-08T00:49:50.740Z,20.88
2023-04-08T00:50:50.742Z,20.86
2023-04-08T00:51:50.767Z,20.86
2023-04-08T00:52:50.774Z,20.89
2023-04-08T00:53:50.733Z,20.94
2023-04-08T00:54:50.683Z,20.96
2023-04-08T00:55:50.764Z,20.88
2023-04-08T00:56:51.229Z,20.89
2023-04-08T00:57:50.925Z,20.89
2023-04-08T00:58:51.192Z,20.91
2023-04-08T00:59:50.924Z,20.89
2023-04-08T01:00:50.880Z,20.94
2023-04-08T01:01:51.048Z,20.94
2023-04-08T01:02:50.942Z,20.98
2023-04-08T01:03:50.964Z,20.89
2023-04-08T01:04:50.861Z,20.92
2023-04-08T01:05:50.791Z,20.92
2023-04-08T01:06:50.875Z,20.97
2023-04-08T01:07:50.778Z,20.92
2023-04-08T01:08:50.831Z,20.97
2023-04-08T01:09:50.867Z,20.95
2023-04-08T01:10:50.738Z,20.97
2023-04-08T01:11:50.785Z,20.96
2023-04-08T01:12:50.728Z,20.97
2023-04-08T01:13:50.722Z,21.04
2023-04-08T01:14:50.716Z,20.98
2023-04-08T01:15:50.781Z,20.95
2023-04-08T01:16:50.778Z,21.00
2023-04-08T01:17:50.692Z,20.97
2023-04-08T01:18:50.977Z,21.03
2023-04-08T01:19:50.646Z,20.96
2023-04-08T01:20:50.694Z,20.97
2023-04-08T01:21:50.666Z,21.04
2023-04-08T01:22:50.633Z,21.00
2023-04-08T01:23:50.594Z,21.00
2023-04-08T01:24:50.597Z,21.04
2023-04-08T01:25:50.683Z,21.00
2023-04-08T01:26:50.705Z,20.98
2023-04-08T01:27:50.680Z,21.00
2023-04-08T01:28:50.722Z,20.99
2023-04-08T01:29:50.630Z,20.97
2023-04-08T01:30:50.612Z,21.00
2023-04-08T01:31:50.663Z,21.00
2023-04-08T01:32:50.659Z,20.94
2023-04-08T01:33:50.534Z,20.97
2023-04-08T01:34:50.530Z,20.96
2023-04-08T01:35:50.554Z,21.00
2023-04-08T01:36:50.537Z,20.94
2023-04-08T01:37:50.509Z,20.89
2023-04-08T01:38:50.677Z,20.99
2023-04-08T01:39:50.484Z,20.96
2023-04-08T01:40:50.477Z,20.96
2023-04-08T01:41:50.670Z,20.91
2023-04-08T01:42:50.464Z,20.91
2023-04-08T01:43:50.489Z,20.94
2023-04-08T01:44:50.421Z,20.96
2023-04-08T01:45:50.422Z,20.91
2023-04-08T01:46:50.481Z,20.97
2023-04-08T01:47:50.486Z,20.97
2023-04-08T01:48:50.649Z,20.94
2023-04-08T01:49:50.465Z,20.97
2023-04-08T01:50:50.438Z,20.97
2023-04-08T01:51:50.443Z,20.99
2023-04-08T01:52:50.478Z,21.03
2023-04-08T01:53:50.417Z,21.02
2023-04-08T01:54:50.410Z,21.04
2023-04-08T01:55:50.369Z,21.03
2023-04-08T01:56:50.370Z,20.98
2023-04-08T01:57:52.123Z,21.09
2023-04-08T01:58:50.579Z,21.03
2023-04-08T01:59:50.312Z,21.03
2023-04-08T02:00:50.327Z,21.03
2023-04-08T02:01:50.372Z,20.99
2023-04-08T02:02:50.552Z,21.06
2023-04-08T02:03:50.298Z,21.02
2023-04-08T02:04:50.313Z,21.06
2023-04-08T02:05:50.248Z,21.02
2023-04-08T02:06:50.226Z,21.03
2023-04-08T02:07:50.254Z,21.02
2023-04-08T02:08:50.397Z,21.06
2023-04-08T02:09:50.192Z,21.06
2023-04-08T02:10:50.154Z,21.06
2023-04-08T02:11:50.195Z,21.03
2023-04-08T02:12:50.163Z,20.97
2023-04-08T02:13:50.125Z,21.00
2023-04-08T02:14:50.130Z,21.03
2023-04-08T02:15:50.135Z,21.02
2023-04-08T02:16:50.095Z,21.05
2023-04-08T02:17:50.135Z,21.06
2023-04-08T02:18:50.371Z,21.02
2023-04-08T02:19:50.077Z,21.00
2023-04-08T02:20:50.033Z,21.02
2023-04-08T02:21:50.013Z,20.97
2023-04-08T02:22:50.107Z,20.99
2023-04-08T02:23:50.019Z,21.05
2023-04-08T02:24:49.973Z,20.99
2023-04-08T02:25:49.983Z,20.99
2023-04-08T02:26:49.960Z,21.00
2023-04-08T02:27:49.939Z,21.03
2023-04-08T02:28:50.197Z,21.02
2023-04-08T02:29:49.915Z,21.06
2023-04-08T02:30:49.907Z,21.03
2023-04-08T02:31:50.027Z,21.11
2023-04-08T02:32:49.897Z,21.02
2023-04-08T02:33:49.861Z,21.05
2023-04-08T02:34:49.856Z,21.03
2023-04-08T02:35:49.858Z,21.06
2023-04-08T02:36:49.842Z,21.02
2023-04-08T02:37:49.859Z,21.05
2023-04-08T02:38:50.193Z,21.03
2023-04-08T02:39:49.801Z,21.05
2023-04-08T02:40:49.789Z,21.00
2023-04-08T02:41:49.829Z,21.03
2023-04-08T02:42:50.118Z,20.99
2023-04-08T02:43:49.783Z,21.05
2023-04-08T02:44:49.793Z,20.97
2023-04-08T02:45:49.784Z,20.97
2023-04-08T02:46:49.743Z,21.05
2023-04-08T02:47:49.863Z,21.06
2023-04-08T02:48:50.000Z,20.96
2023-04-08T02:49:49.749Z,21.03
2023-04-08T02:50:49.757Z,21.00
2023-04-08T02:51:49.721Z,21.00
2023-04-08T02:52:49.761Z,21.08
2023-04-08T02:53:49.728Z,21.00
2023-04-08T02:54:49.696Z,21.03
2023-04-08T02:55:49.700Z,21.08
2023-04-08T02:56:49.688Z,21.03
2023-04-08T02:57:49.687Z,21.11
2023-04-08T02:58:49.853Z,21.03
2023-04-08T02:59:49.757Z,21.00
2023-04-08T03:00:49.753Z,21.02
2023-04-08T03:01:49.753Z,20.97
2023-04-08T03:02:49.913Z,20.94
2023-04-08T03:03:49.733Z,20.97
2023-04-08T03:04:49.637Z,20.97
2023-04-08T03:05:49.684Z,21.03
2023-04-08T03:06:49.654Z,20.99
2023-04-08T03:07:49.721Z,20.93
2023-04-08T03:08:49.855Z,20.99
2023-04-08T03:09:49.705Z,20.97
2023-04-08T03:10:49.632Z,21.03
2023-04-08T03:11:49.604Z,20.99
2023-04-08T03:12:49.600Z,21.02
2023-04-08T03:13:49.622Z,20.97
2023-04-08T03:14:49.587Z,20.99
2023-04-08T03:15:49.580Z,20.99
2023-04-08T03:16:49.605Z,20.99
2023-04-08T03:17:49.671Z,20.99
2023-04-08T03:18:50.004Z,21.02
2023-04-08T03:19:49.547Z,21.03
2023-04-08T03:20:49.600Z,20.98
2023-04-08T03:21:49.531Z,21.01
2023-04-08T03:22:49.582Z,20.97
2023-04-08T03:23:49.486Z,21.03
2023-04-08T03:24:49.482Z,21.00
2023-04-08T03:25:49.454Z,20.94
2023-04-08T03:26:49.464Z,21.08
2023-04-08T03:27:49.500Z,21.00
2023-04-08T03:28:49.828Z,20.99
2023-04-08T03:29:49.457Z,20.95
2023-04-08T03:30:49.398Z,21.02
2023-04-08T03:31:49.433Z,21.03
2023-04-08T03:32:49.534Z,20.98
2023-04-08T03:33:49.372Z,21.03
2023-04-08T03:34:49.459Z,21.01
2023-04-08T03:35:49.419Z,20.99
2023-04-08T03:36:49.413Z,21.01
2023-04-08T03:37:49.398Z,20.97
2023-04-08T03:38:49.552Z,20.95
2023-04-08T03:39:49.369Z,21.06
2023-04-08T03:40:49.350Z,20.92
2023-04-08T03:41:49.334Z,21.04
2023-04-08T03:42:49.444Z,21.00
2023-04-08T03:43:49.314Z,21.00
2023-04-08T03:44:49.294Z,20.94
2023-04-08T03:45:49.428Z,20.98
2023-04-08T03:46:49.303Z,21.01
2023-04-08T03:47:49.359Z,21.01
2023-04-08T03:48:49.542Z,21.01
2023-04-08T03:49:49.253Z,21.03
2023-04-08T03:50:49.257Z,21.03
2023-04-08T03:51:49.284Z,20.97
2023-04-08T03:52:49.263Z,20.98
2023-04-08T03:53:49.214Z,20.92
2023-04-08T03:54:49.212Z,20.88
2023-04-08T03:55:49.271Z,20.94
2023-04-08T03:56:49.202Z,20.96
2023-04-08T03:57:49.185Z,20.94
2023-04-08T03:58:49.342Z,20.97
2023-04-08T03:59:49.174Z,20.95
2023-04-08T04:00:49.193Z,20.94
2023-04-08T04:01:49.279Z,20.88
2023-04-08T04:02:49.397Z,20.94
2023-04-08T04:03:49.241Z,20.97
2023-04-08T04:04:49.127Z,20.94
2023-04-08T04:05:49.114Z,20.97
2023-04-08T04:06:49.115Z,20.95
2023-04-08T04:07:49.115Z,20.95
2023-04-08T04:08:49.410Z,21.03
2023-04-08T04:09:49.135Z,20.97
2023-04-08T04:10:49.058Z,20.92
2023-04-08T04:11:49.124Z,20.97
2023-04-08T04:12:49.092Z,20.95
2023-04-08T04:13:49.141Z,20.92
2023-04-08T04:14:49.021Z,20.95
2023-04-08T04:15:49.099Z,20.97
2023-04-08T04:16:49.011Z,20.92
2023-04-08T04:17:49.059Z,20.98
2023-04-08T04:18:49.490Z,20.97
2023-04-08T04:19:49.057Z,20.97
2023-04-08T04:20:48.993Z,20.98
2023-04-08T04:21:48.972Z,20.98
2023-04-08T04:22:49.117Z,21.01
2023-04-08T04:23:48.968Z,20.99
2023-04-08T04:24:49.016Z,20.98
2023-04-08T04:25:48.935Z,20.99
2023-04-08T04:26:48.934Z,20.98
2023-04-08T04:27:48.978Z,20.98
2023-04-08T04:28:49.614Z,20.99
2023-04-08T04:29:48.938Z,21.03
2023-04-08T04:30:48.948Z,20.99
2023-04-08T04:31:48.949Z,20.96
2023-04-08T04:32:48.949Z,20.99
2023-04-08T04:33:48.919Z,20.98
2023-04-08T04:34:48.887Z,20.99
2023-04-08T04:35:48.971Z,20.95
2023-04-08T04:36:48.884Z,20.97
2023-04-08T04:37:48.954Z,20.99
2023-04-08T04:38:50.146Z,20.98
2023-04-08T04:39:48.858Z,20.99
2023-04-08T04:40:48.860Z,20.99
2023-04-08T04:41:48.881Z,21.03
2023-04-08T04:42:48.861Z,21.01
2023-04-08T04:43:48.839Z,21.04
2023-04-08T04:44:48.832Z,21.01
2023-04-08T04:45:48.826Z,20.99
2023-04-08T04:46:48.857Z,20.99
2023-04-08T04:47:48.995Z,20.97
2023-04-08T04:48:49.037Z,20.97
2023-04-08T04:49:48.770Z,21.01
2023-04-08T04:50:48.767Z,21.04
2023-04-08T04:51:48.762Z,20.98
2023-04-08T04:52:48.739Z,20.99
2023-04-08T04:53:48.795Z,20.98
2023-04-08T04:54:48.757Z,20.99
2023-04-08T04:55:48.712Z,20.99
2023-04-08T04:56:48.713Z,20.99
2023-04-08T04:57:49.732Z,20.97
2023-04-08T04:58:48.988Z,20.97
2023-04-08T04:59:48.687Z,20.95
2023-04-08T05:00:48.654Z,20.98
2023-04-08T05:01:48.813Z,20.99
2023-04-08T05:02:48.738Z,20.99
2023-04-08T05:03:48.799Z,21.04
2023-04-08T05:04:48.667Z,21.01
2023-04-08T05:05:48.607Z,21.04
2023-04-08T05:06:48.608Z,21.01
2023-04-08T05:07:48.607Z,20.99
2023-04-08T05:08:48.814Z,21.03
2023-04-08T05:09:48.590Z,21.01
2023-04-08T05:10:48.546Z,21.02
2023-04-08T05:11:48.544Z,21.02
2023-04-08T05:12:48.534Z,21.01
2023-04-08T05:13:48.563Z,21.05
2023-04-08T05:14:48.526Z,20.99
2023-04-08T05:15:48.580Z,20.96
2023-04-08T05:16:48.560Z,21.03
2023-04-08T05:17:48.565Z,21.01
2023-04-08T05:18:48.727Z,20.99
2023-04-08T05:19:48.492Z,20.98
2023-04-08T05:20:48.489Z,21.03
2023-04-08T05:21:48.463Z,21.01
2023-04-08T05:22:48.491Z,21.02
2023-04-08T05:23:48.531Z,21.01
2023-04-08T05:24:48.510Z,21.05
2023-04-08T05:25:48.616Z,21.04
2023-04-08T05:26:48.638Z,20.98
2023-04-08T05:27:48.648Z,21.04
2023-04-08T05:28:48.891Z,21.01
2023-04-08T05:29:48.781Z,21.01
2023-04-08T05:30:48.823Z,21.04
2023-04-08T05:31:48.937Z,21.04
2023-04-08T05:32:48.937Z,20.95
2023-04-08T05:33:48.997Z,20.96
2023-04-08T05:34:49.031Z,20.97
2023-04-08T05:35:49.165Z,20.94
2023-04-08T05:36:49.170Z,20.95
2023-04-08T05:37:49.242Z,21.01
2023-04-08T05:38:49.368Z,20.95
2023-04-08T05:39:49.211Z,21.01
2023-04-08T05:40:49.268Z,20.94
2023-04-08T05:41:49.247Z,20.99
2023-04-08T05:42:49.208Z,21.03
2023-04-08T05:43:49.216Z,20.97
2023-04-08T05:44:49.335Z,20.99
2023-04-08T05:45:49.183Z,21.03
2023-04-08T05:46:49.224Z,20.98
2023-04-08T05:47:49.196Z,21.01
2023-04-08T05:48:49.397Z,21.01
2023-04-08T05:49:51.138Z,20.98
2023-04-08T05:50:49.132Z,21.01
2023-04-08T05:51:49.189Z,20.99
2023-04-08T05:52:49.102Z,20.99
2023-04-08T05:53:49.094Z,20.98
2023-04-08T05:54:49.089Z,20.99
2023-04-08T05:55:49.067Z,20.98
2023-04-08T05:56:49.054Z,20.99
2023-04-08T05:57:49.177Z,21.01
2023-04-08T05:58:49.216Z,21.01
2023-04-08T05:59:49.717Z,21.03
2023-04-08T06:00:48.999Z,20.99
2023-04-08T06:01:49.037Z,20.98
2023-04-08T06:02:49.091Z,21.01
2023-04-08T06:03:49.258Z,20.98
2023-04-08T06:04:49.013Z,20.99
2023-04-08T06:05:48.951Z,20.98
2023-04-08T06:06:48.938Z,20.98
2023-04-08T06:07:48.972Z,20.98
2023-04-08T06:08:49.315Z,20.98
2023-04-08T06:09:49.008Z,20.99
2023-04-08T06:10:48.905Z,21.05
2023-04-08T06:11:48.949Z,20.98
2023-04-08T06:12:48.908Z,21.05
2023-04-08T06:13:48.882Z,21.05
2023-04-08T06:14:48.885Z,20.99
2023-04-08T06:15:48.939Z,20.98
2023-04-08T06:16:48.961Z,21.03
2023-04-08T06:17:48.964Z,21.02
2023-04-08T06:18:49.175Z,20.98
2023-04-08T06:19:48.826Z,21.04
2023-04-08T06:20:48.790Z,21.04
2023-04-08T06:21:48.791Z,21.01
2023-04-08T06:22:48.788Z,21.01
2023-04-08T06:23:48.757Z,20.99
2023-04-08T06:24:48.882Z,21.04
2023-04-08T06:25:48.920Z,21.03
2023-04-08T06:26:48.934Z,21.05
2023-04-08T06:27:48.994Z,21.02
2023-04-08T06:28:49.236Z,21.01
2023-04-08T06:29:49.159Z,21.05
2023-04-08T06:30:49.186Z,20.98
2023-04-08T06:31:49.258Z,20.99
2023-04-08T06:32:49.452Z,21.02
2023-04-08T06:33:49.352Z,21.02
2023-04-08T06:34:49.428Z,21.01
2023-04-08T06:35:49.528Z,21.02
2023-04-08T06:36:49.497Z,21.02
2023-04-08T06:37:49.490Z,21.05
2023-04-08T06:38:49.811Z,21.02
2023-04-08T06:39:49.499Z,21.02
2023-04-08T06:40:49.500Z,21.02
2023-04-08T06:41:49.461Z,21.05
2023-04-08T06:42:49.465Z,21.01
2023-04-08T06:43:49.432Z,21.10
2023-04-08T06:44:49.484Z,21.07
2023-04-08T06:45:49.436Z,21.01
2023-04-08T06:46:49.414Z,21.02
2023-04-08T06:47:49.419Z,21.01
2023-04-08T06:48:49.645Z,21.05
2023-04-08T06:49:49.405Z,21.04
2023-04-08T06:50:49.376Z,21.07
2023-04-08T06:51:49.382Z,21.07
2023-04-08T06:52:49.343Z,21.03
2023-04-08T06:53:49.349Z,21.08
2023-04-08T06:54:49.714Z,21.08
2023-04-08T06:55:49.318Z,21.08
2023-04-08T06:56:49.348Z,21.10
2023-04-08T06:57:49.323Z,21.03
2023-04-08T06:58:49.457Z,21.04
2023-04-08T06:59:49.331Z,21.08
2023-04-08T07:00:49.350Z,21.07
2023-04-08T07:01:49.322Z,21.04
2023-04-08T07:02:49.419Z,21.07
2023-04-08T07:03:49.414Z,20.97
2023-04-08T07:04:50.116Z,21.03
2023-04-08T07:05:49.268Z,21.01
2023-04-08T07:06:49.270Z,21.07
2023-04-08T07:07:50.198Z,21.04
2023-04-08T07:08:49.482Z,21.03
2023-04-08T07:09:49.307Z,21.01
2023-04-08T07:10:49.334Z,21.06
2023-04-08T07:11:49.341Z,21.03
2023-04-08T07:12:49.423Z,21.04
2023-04-08T07:13:49.396Z,21.03
2023-04-08T07:14:49.381Z,21.01
2023-04-08T07:15:49.377Z,21.00
2023-04-08T07:16:49.459Z,20.98
2023-04-08T07:17:49.384Z,21.03
2023-04-08T07:18:49.554Z,21.03
2023-04-08T07:19:49.334Z,20.99
2023-04-08T07:20:49.320Z,21.02
2023-04-08T07:21:49.337Z,21.04
2023-04-08T07:22:49.312Z,21.01
2023-04-08T07:23:49.352Z,21.00
2023-04-08T07:24:49.338Z,20.96
2023-04-08T07:25:49.314Z,20.91
2023-04-08T07:26:49.296Z,20.96
2023-04-08T07:27:49.265Z,20.93
2023-04-08T07:28:49.490Z,20.91
2023-04-08T07:29:49.295Z,20.94
2023-04-08T07:30:49.359Z,20.94
2023-04-08T07:31:49.243Z,21.02
2023-04-08T07:32:49.289Z,20.97
2023-04-08T07:33:49.242Z,21.02
2023-04-08T07:34:49.736Z,20.97
2023-04-08T07:35:49.384Z,20.99
2023-04-08T07:36:49.282Z,20.99
2023-04-08T07:37:49.225Z,20.97
2023-04-08T07:38:49.404Z,20.96
2023-04-08T07:39:49.231Z,20.96
2023-04-08T07:40:49.213Z,20.93
2023-04-08T07:41:49.192Z,20.94
2023-04-08T07:42:49.202Z,20.92
2023-04-08T07:43:49.195Z,20.90
2023-04-08T07:44:49.173Z,20.97
2023-04-08T07:45:49.176Z,20.98
2023-04-08T07:46:49.151Z,20.96
2023-04-08T07:47:49.228Z,20.99
2023-04-08T07:48:49.580Z,20.94
2023-04-08T07:49:49.155Z,20.96
2023-04-08T07:51:09.016Z,20.97
2023-04-08T07:51:49.111Z,20.99
2023-04-08T07:52:49.096Z,20.96
2023-04-08T07:53:49.078Z,20.96
2023-04-08T07:54:49.110Z,20.93
2023-04-08T07:55:49.048Z,20.95
2023-04-08T07:56:49.038Z,20.90
2023-04-08T07:57:49.010Z,20.93
2023-04-08T07:58:51.203Z,20.92
2023-04-08T07:59:49.014Z,20.97
2023-04-08T08:00:49.090Z,20.90
2023-04-08T08:01:49.015Z,20.93
2023-04-08T08:02:49.088Z,20.93
2023-04-08T08:03:49.235Z,20.90
2023-04-08T08:04:48.952Z,20.97
2023-04-08T08:05:48.915Z,20.92
2023-04-08T08:06:48.958Z,20.93
2023-04-08T08:07:48.945Z,20.98
2023-04-08T08:08:48.888Z,20.93
2023-04-08T08:09:48.868Z,20.90
2023-04-08T08:10:50.217Z,20.95
2023-04-08T08:11:48.844Z,20.93
2023-04-08T08:12:48.863Z,20.93
2023-04-08T08:13:49.127Z,20.98
2023-04-08T08:14:48.940Z,20.88
2023-04-08T08:15:48.969Z,20.92
2023-04-08T08:16:48.998Z,20.89
2023-04-08T08:17:49.057Z,20.88
2023-04-08T08:18:49.040Z,20.91
2023-04-08T08:19:49.122Z,20.89
2023-04-08T08:20:49.124Z,20.89
2023-04-08T08:21:49.125Z,20.92
2023-04-08T08:22:57.176Z,20.94
2023-04-08T08:23:50.392Z,20.86
2023-04-08T08:24:49.133Z,20.93
2023-04-08T08:25:49.174Z,20.91
2023-04-08T08:26:49.124Z,20.89
2023-04-08T08:27:49.123Z,20.92
2023-04-08T08:28:49.138Z,20.89
2023-04-08T08:29:49.096Z,20.93
2023-04-08T08:30:49.109Z,20.88
2023-04-08T08:31:49.055Z,20.91
2023-04-08T08:32:49.072Z,20.86
2023-04-08T08:33:49.244Z,20.93
2023-04-08T08:34:49.035Z,20.87
2023-04-08T08:35:49.038Z,20.91
2023-04-08T08:36:48.971Z,20.87
2023-04-08T08:37:49.002Z,20.84
2023-04-08T08:38:48.998Z,20.88
2023-04-08T08:39:48.949Z,20.90
2023-04-08T08:40:49.037Z,20.88
2023-04-08T08:41:48.909Z,20.75
2023-04-08T08:42:48.921Z,20.84
2023-04-08T08:43:49.177Z,20.90
2023-04-08T08:44:48.882Z,20.82
2023-04-08T08:45:48.846Z,20.92
2023-04-08T08:46:48.868Z,20.88
2023-04-08T08:47:50.860Z,20.85
2023-04-08T08:48:48.830Z,20.88
2023-04-08T08:49:48.795Z,20.92
2023-04-08T08:50:49.779Z,20.91
2023-04-08T08:51:48.825Z,20.86
2023-04-08T08:52:48.852Z,20.92
2023-04-08T08:53:48.861Z,20.87
2023-04-08T08:54:48.874Z,20.93
2023-04-08T08:56:13.058Z,20.88
2023-04-08T08:56:49.843Z,20.92
2023-04-08T08:57:48.831Z,20.93
2023-04-08T08:58:48.805Z,20.90
2023-04-08T08:59:48.806Z,20.90
2023-04-08T09:00:49.264Z,20.92
2023-04-08T09:01:48.874Z,20.86
2023-04-08T09:02:48.916Z,20.87
2023-04-08T09:03:48.992Z,20.90
2023-04-08T09:04:48.931Z,20.92
2023-04-08T09:05:48.790Z,20.98
2023-04-08T09:06:48.688Z,20.96
2023-04-08T09:07:48.651Z,20.93
2023-04-08T09:08:48.657Z,20.93
2023-04-08T09:09:48.655Z,21.02
2023-04-08T09:10:48.632Z,20.98
2023-04-08T09:11:48.589Z,21.04
2023-04-08T09:12:48.663Z,21.02
2023-04-08T09:13:48.721Z,20.98
2023-04-08T09:14:48.547Z,21.01
2023-04-08T09:15:48.570Z,20.90
2023-04-08T09:16:48.684Z,21.04
2023-04-08T09:17:48.499Z,20.99
2023-04-08T09:18:48.519Z,20.99
2023-04-08T09:19:48.487Z,20.94
2023-04-08T09:20:48.477Z,20.99
2023-04-08T09:21:48.418Z,20.98
2023-04-08T09:22:48.414Z,20.99
2023-04-08T09:23:48.654Z,21.01
2023-04-08T09:24:48.392Z,21.05
2023-04-08T09:25:48.448Z,20.94
2023-04-08T09:26:48.355Z,21.01
2023-04-08T09:27:48.326Z,20.96
2023-04-08T09:28:48.396Z,20.96
2023-04-08T09:29:48.306Z,20.95
2023-04-08T09:30:48.335Z,20.89
2023-04-08T09:31:48.339Z,20.87
2023-04-08T09:32:48.290Z,20.95
2023-04-08T09:33:48.394Z,20.95
2023-04-08T09:34:48.200Z,20.94
2023-04-08T09:35:48.323Z,20.90
2023-04-08T09:36:48.165Z,20.86
2023-04-08T09:37:48.151Z,20.85
2023-04-08T09:38:48.182Z,20.85
2023-04-08T09:39:48.133Z,20.86
2023-04-08T09:40:48.113Z,20.91
2023-04-08T09:41:48.167Z,20.91
2023-04-08T09:42:48.062Z,20.90
2023-04-08T09:43:48.370Z,20.89
2023-04-08T09:44:48.026Z,20.74
2023-04-08T09:45:48.089Z,20.84
2023-04-08T09:46:48.022Z,20.91
2023-04-08T09:47:48.027Z,20.93
2023-04-08T09:48:47.974Z,20.89
2023-04-08T09:49:47.944Z,20.90
2023-04-08T09:50:47.914Z,20.88
2023-04-08T09:51:47.927Z,20.89
2023-04-08T09:52:47.979Z,20.87
2023-04-08T09:53:47.965Z,20.90
2023-04-08T09:54:47.848Z,20.82
2023-04-08T09:55:47.905Z,20.74
2023-04-08T09:56:47.870Z,20.76
2023-04-08T09:57:47.832Z,20.80
2023-04-08T09:58:47.777Z,20.78
2023-04-08T09:59:47.804Z,20.72
2023-04-08T10:00:47.773Z,20.83
2023-04-08T10:01:47.786Z,20.70
2023-04-08T10:02:47.927Z,20.77
2023-04-08T10:03:47.741Z,20.71
2023-04-08T10:04:47.784Z,20.72
2023-04-08T10:05:47.650Z,20.74
2023-04-08T10:06:47.630Z,20.68
2023-04-08T10:07:47.588Z,20.68
2023-04-08T10:08:47.556Z,20.71
2023-04-08T10:09:47.546Z,20.71
2023-04-08T10:10:48.116Z,20.71
2023-04-08T10:11:47.499Z,20.73
2023-04-08T10:12:47.497Z,20.65
2023-04-08T10:13:47.427Z,20.71
2023-04-08T10:14:47.474Z,20.62
2023-04-08T10:15:47.441Z,20.67
2023-04-08T10:16:47.446Z,20.67
2023-04-08T10:17:47.372Z,20.65
2023-04-08T10:18:47.385Z,20.72
2023-04-08T10:19:47.304Z,20.58
2023-04-08T10:20:47.269Z,20.59
2023-04-08T10:21:47.239Z,20.61
2023-04-08T10:22:47.213Z,20.55
2023-04-08T10:23:47.334Z,20.47
2023-04-08T10:24:47.196Z,20.55
2023-04-08T10:25:47.147Z,20.58
2023-04-08T10:26:47.177Z,20.62
2023-04-08T10:27:47.079Z,20.55
2023-04-08T10:28:47.082Z,20.58
2023-04-08T10:29:47.079Z,20.52
2023-04-08T10:30:47.011Z,20.61
2023-04-08T10:31:47.041Z,20.59
2023-04-08T10:32:46.993Z,20.54
2023-04-08T10:33:46.946Z,20.61
2023-04-08T10:34:46.916Z,20.58
2023-04-08T10:35:46.899Z,20.59
2023-04-08T10:36:48.435Z,20.43
2023-04-08T10:37:46.816Z,20.46
2023-04-08T10:38:46.842Z,20.48
2023-04-08T10:39:46.768Z,20.46
2023-04-08T10:40:46.757Z,20.50
2023-04-08T10:41:46.793Z,20.52
2023-04-08T10:42:46.691Z,20.48
2023-04-08T10:43:46.670Z,20.46
2023-04-08T10:44:46.626Z,20.54
2023-04-08T10:45:48.579Z,20.48
2023-04-08T10:46:46.572Z,20.49
2023-04-08T10:47:46.644Z,20.56
2023-04-08T10:48:46.577Z,20.54
2023-04-08T10:49:46.525Z,20.46
2023-04-08T10:50:46.466Z,20.55
2023-04-08T10:51:46.553Z,20.52
2023-04-08T10:52:46.466Z,20.45
2023-04-08T10:53:46.417Z,20.49
2023-04-08T10:54:46.526Z,20.50
2023-04-08T10:55:46.338Z,20.47
2023-04-08T10:56:46.827Z,20.49
2023-04-08T10:57:46.283Z,20.52
2023-04-08T10:58:46.269Z,20.48
2023-04-08T10:59:46.239Z,20.52
2023-04-08T11:00:46.290Z,20.46
2023-04-08T11:01:46.675Z,20.55
2023-04-08T11:02:46.368Z,20.50
2023-04-08T11:03:46.254Z,20.45
2023-04-08T11:04:46.131Z,20.50
2023-04-08T11:05:46.170Z,20.52
2023-04-08T11:06:49.362Z,20.48
2023-04-08T11:07:46.109Z,20.49
2023-04-08T11:08:45.974Z,20.52
2023-04-08T11:09:46.008Z,20.55
2023-04-08T11:10:45.963Z,20.57
2023-04-08T11:11:45.932Z,20.48
2023-04-08T11:12:45.951Z,20.54
2023-04-08T11:13:52.772Z,20.52
2023-04-08T11:14:47.349Z,20.52
2023-04-08T11:15:45.887Z,20.54
2023-04-08T11:16:46.328Z,20.55
2023-04-08T11:17:45.933Z,20.59
2023-04-08T11:18:45.802Z,20.50
2023-04-08T11:19:45.729Z,20.56
2023-04-08T11:20:45.684Z,20.58
2023-04-08T11:21:45.649Z,20.56
2023-04-08T11:22:45.672Z,20.58
2023-04-08T11:23:45.649Z,20.56
2023-04-08T11:24:45.620Z,20.58
2023-04-08T11:25:45.574Z,20.58
2023-04-08T11:26:45.645Z,20.60
2023-04-08T11:27:45.621Z,20.60
2023-04-08T11:28:45.549Z,20.60
2023-04-08T11:29:45.556Z,20.66
2023-04-08T11:30:45.535Z,20.70
2023-04-08T11:31:45.492Z,20.66
2023-04-08T11:32:48.836Z,20.67
2023-04-08T11:33:45.411Z,20.64
2023-04-08T11:34:45.388Z,20.64
2023-04-08T11:35:45.436Z,20.67
2023-04-08T11:36:45.369Z,20.64
2023-04-08T11:37:45.345Z,20.66
2023-04-08T11:38:45.360Z,20.66
2023-04-08T11:39:45.279Z,20.64
2023-04-08T11:40:45.286Z,20.66
2023-04-08T11:41:45.257Z,20.67
2023-04-08T11:42:47.042Z,20.69
2023-04-08T11:43:45.214Z,20.61
2023-04-08T11:44:45.156Z,20.64
2023-04-08T11:45:45.140Z,20.67
2023-04-08T11:46:45.180Z,20.73
2023-04-08T11:47:45.189Z,20.73
2023-04-08T11:48:45.072Z,20.75
2023-04-08T11:49:45.084Z,20.72
2023-04-08T11:50:45.068Z,20.72
2023-04-08T11:51:45.143Z,20.73
2023-04-08T11:52:44.997Z,20.72
2023-04-08T11:53:44.975Z,20.69
2023-04-08T11:54:45.017Z,20.69
2023-04-08T11:55:44.949Z,20.70
2023-04-08T11:56:44.924Z,20.70
2023-04-08T11:57:44.939Z,20.76
2023-04-08T11:58:44.866Z,20.69
2023-04-08T11:59:44.857Z,20.73
2023-04-08T12:00:44.844Z,20.73
2023-04-08T12:01:44.849Z,20.73
2023-04-08T12:02:44.942Z,20.69
2023-04-08T12:03:44.958Z,20.70
2023-04-08T12:04:44.789Z,20.69
2023-04-08T12:05:44.738Z,20.67
2023-04-08T12:06:44.705Z,20.70
2023-04-08T12:07:44.721Z,20.75
2023-04-08T12:08:44.686Z,20.72
2023-04-08T12:09:44.652Z,20.72
2023-04-08T12:10:44.705Z,20.73
2023-04-08T12:11:44.695Z,20.76
2023-04-08T12:12:44.599Z,20.72
2023-04-08T12:13:44.581Z,20.78
2023-04-08T12:14:44.571Z,20.75
2023-04-08T12:15:44.615Z,20.75
2023-04-08T12:16:44.575Z,20.79
2023-04-08T12:17:44.609Z,20.81
2023-04-08T12:18:44.510Z,20.78
2023-04-08T12:19:44.501Z,20.74
2023-04-08T12:20:44.504Z,20.78
2023-04-08T12:21:44.469Z,20.83
2023-04-08T12:22:44.461Z,20.76
2023-04-08T12:23:44.433Z,20.78
2023-04-08T12:24:44.398Z,20.72
2023-04-08T12:25:44.364Z,20.74
2023-04-08T12:26:44.354Z,20.72
2023-04-08T12:27:44.375Z,20.81
2023-04-08T12:28:44.310Z,20.78
2023-04-08T12:29:44.314Z,20.78
2023-04-08T12:30:44.344Z,20.87
2023-04-08T12:31:44.327Z,20.78
2023-04-08T12:32:44.319Z,20.84
2023-04-08T12:33:44.240Z,20.87
2023-04-08T12:34:44.203Z,20.83
2023-04-08T12:35:44.239Z,20.87
2023-04-08T12:36:44.146Z,20.83
2023-04-08T12:37:44.224Z,20.83
2023-04-08T12:38:44.143Z,20.84
2023-04-08T12:39:44.135Z,20.83
2023-04-08T12:40:44.142Z,20.81
2023-04-08T12:41:44.056Z,20.81
2023-04-08T12:42:44.412Z,20.81
2023-04-08T12:43:44.009Z,20.78
2023-04-08T12:44:43.976Z,20.80
2023-04-08T12:45:43.970Z,20.84
2023-04-08T12:46:43.997Z,20.78
2023-04-08T12:47:43.964Z,20.84
2023-04-08T12:48:43.941Z,20.83
2023-04-08T12:49:49.584Z,20.87
2023-04-08T12:50:44.857Z,20.86
2023-04-08T12:51:44.073Z,20.83
2023-04-08T12:52:44.130Z,20.80